Time;durP1;ratioP1;P1;durP2;ratioP2;P2;SDS_P1;SDS_P2;PMS_P1;PMS_P2;Temp;Humidity;BMP_temperature;BMP_pressure;BME280_temperature;BME280_humidity;BME280_pressure;Samples;Min_cycle;Max_cycle;Signal;HPM_P1;HPM_P2
2023/03/15 00:01:20;;;;;;;3.75;2.08;;;2.60;99.90;;;;;;5023857;28;20032;-87
2023/03/15 00:03:46;;;;;;;4.32;1.40;;;2.60;99.90;;;;;;5029413;28;20029;-89
2023/03/15 00:06:12;;;;;;;6.22;1.33;;;2.60;99.90;;;;;;5035821;28;20033;-88
2023/03/15 00:08:38;;;;;;;5.25;1.20;;;2.50;99.90;;;;;;5024777;28;20059;-87
2023/03/15 00:11:04;;;;;;;5.13;1.38;;;2.40;99.90;;;;;;5031085;28;20406;-88
2023/03/15 00:13:31;;;;;;;4.07;1.08;;;2.30;99.90;;;;;;5020875;28;20478;-88
2023/03/15 00:15:58;;;;;;;2.40;0.88;;;2.20;99.90;;;;;;5019692;28;21075;-88
2023/03/15 00:18:25;;;;;;;4.65;1.20;;;2.20;99.90;;;;;;5023529;28;20087;-87
2023/03/15 00:20:50;;;;;;;2.28;0.82;;;2.00;99.90;;;;;;5035242;28;20110;-87
2023/03/15 00:23:16;;;;;;;3.28;0.50;;;1.90;99.90;;;;;;5018972;28;20056;-88
2023/03/15 00:25:47;;;;;;;4.30;0.50;;;1.80;99.90;;;;;;5035882;28;20028;-88
2023/03/15 00:28:13;;;;;;;1.40;0.40;;;1.70;99.90;;;;;;5036815;28;20053;-90
2023/03/15 00:30:39;;;;;;;1.30;0.50;;;1.60;99.90;;;;;;5032052;28;20068;-90
2023/03/15 00:33:04;;;;;;;1.10;0.40;;;1.60;99.90;;;;;;5036257;28;20110;-89
2023/03/15 00:35:34;;;;;;;1.98;0.40;;;1.60;99.90;;;;;;5038238;28;20033;-88
2023/03/15 00:38:00;;;;;;;0.68;0.20;;;1.60;99.90;;;;;;5033898;28;20029;-87
2023/03/15 00:40:25;;;;;;;1.10;0.30;;;1.60;99.90;;;;;;5010043;28;20032;-88
2023/03/15 00:42:51;;;;;;;1.30;0.40;;;1.60;99.90;;;;;;5033136;28;20033;-89
2023/03/15 00:45:20;;;;;;;0.70;0.30;;;1.60;99.90;;;;;;5031797;28;20068;-88
2023/03/15 00:47:53;;;;;;;0.90;0.45;;;1.60;99.90;;;;;;5028552;28;20025;-88
2023/03/15 00:50:21;;;;;;;1.50;0.40;;;1.60;99.90;;;;;;5053627;28;20034;-87
2023/03/15 00:52:47;;;;;;;2.00;0.43;;;1.60;99.90;;;;;;5020218;28;20021;-89
2023/03/15 00:55:15;;;;;;;1.40;0.40;;;1.60;99.90;;;;;;5045347;28;20033;-88
2023/03/15 00:57:42;;;;;;;1.65;0.30;;;1.60;99.90;;;;;;5027185;28;20029;-88
2023/03/15 01:00:11;;;;;;;1.67;0.30;;;1.60;99.90;;;;;;5037579;28;20025;-88
2023/03/15 01:02:36;;;;;;;0.60;0.20;;;1.60;99.90;;;;;;5055920;28;20060;-87
2023/03/15 01:05:08;;;;;;;0.90;0.30;;;1.60;99.90;;;;;;5039699;28;20025;-88
2023/03/15 01:07:33;;;;;;;0.95;0.20;;;1.50;99.90;;;;;;5035250;28;20083;-88
2023/03/15 01:10:01;;;;;;;1.05;0.28;;;1.50;99.90;;;;;;5025308;28;20416;-88
2023/03/15 01:12:31;;;;;;;0.60;0.30;;;1.50;99.90;;;;;;5037807;28;20029;-89
2023/03/15 01:14:58;;;;;;;2.00;0.32;;;1.50;99.90;;;;;;5021225;28;20119;-89
2023/03/15 01:17:24;;;;;;;1.65;0.20;;;1.60;99.90;;;;;;5033666;28;20116;-87
2023/03/15 01:19:50;;;;;;;1.08;0.30;;;1.60;99.90;;;;;;5022852;28;20467;-87
2023/03/15 01:22:18;;;;;;;3.92;0.30;;;1.60;99.90;;;;;;5021320;28;20048;-88
2023/03/15 01:24:44;;;;;;;1.20;0.30;;;1.70;99.90;;;;;;5016342;28;20549;-88
2023/03/15 01:27:11;;;;;;;0.95;0.30;;;1.80;99.90;;;;;;5040678;28;20049;-88
2023/03/15 01:29:36;;;;;;;1.00;0.38;;;1.80;99.90;;;;;;5033032;28;20424;-89
2023/03/15 01:32:04;;;;;;;2.17;0.40;;;1.90;99.90;;;;;;5040137;28;20033;-88
2023/03/15 01:34:30;;;;;;;1.42;0.50;;;1.90;99.90;;;;;;5029632;28;20489;-88
2023/03/15 01:36:55;;;;;;;1.45;0.50;;;1.90;99.90;;;;;;5014901;28;20033;-88
2023/03/15 01:39:27;;;;;;;2.20;0.73;;;2.00;99.90;;;;;;5027170;28;20370;-88
2023/03/15 01:41:52;;;;;;;1.45;0.75;;;2.00;99.90;;;;;;5038043;28;20045;-88
2023/03/15 01:44:19;;;;;;;2.10;0.90;;;2.00;99.90;;;;;;5024371;28;20021;-89
2023/03/15 01:46:46;;;;;;;2.17;0.70;;;2.10;99.90;;;;;;5044839;28;20104;-87
2023/03/15 01:49:27;;;;;;;2.28;0.68;;;2.10;99.90;;;;;;5030814;28;20034;-89
2023/03/15 01:52:04;;;;;;;2.88;1.10;;;2.00;99.90;;;;;;5052509;28;20107;-89
2023/03/15 01:54:50;;;;;;;5.88;2.92;;;2.10;99.90;;;;;;5029335;28;20455;-88
2023/03/15 01:57:21;;;;;;;4.03;1.80;;;2.20;99.90;;;;;;5022300;28;20032;-86
2023/03/15 01:59:54;;;;;;;3.63;2.05;;;2.30;99.90;;;;;;5035417;28;20026;-88
2023/03/15 02:02:23;;;;;;;3.60;2.10;;;2.30;99.90;;;;;;5050992;28;20041;-88
2023/03/15 02:05:08;;;;;;;3.85;2.05;;;2.30;99.90;;;;;;5010814;28;20024;-88
2023/03/15 02:07:35;;;;;;;2.55;1.52;;;2.30;99.90;;;;;;5018105;28;20043;-88
2023/03/15 02:10:15;;;;;;;4.85;1.80;;;2.30;99.90;;;;;;5022934;28;20029;-87
2023/03/15 02:12:45;;;;;;;;;;;2.30;99.90;;;;;;5013909;28;20076;-88
2023/03/15 02:15:12;;;;;;;4.05;1.77;;;2.30;99.90;;;;;;5014580;28;19942;-87
2023/03/15 02:17:44;;;;;;;3.03;1.55;;;2.30;99.90;;;;;;5023481;28;20359;-89
2023/03/15 02:20:26;;;;;;;3.45;1.20;;;2.30;99.90;;;;;;5013657;28;20022;-89
2023/03/15 02:23:02;;;;;;;2.20;1.23;;;2.30;99.90;;;;;;5014156;28;20474;-87
2023/03/15 02:25:59;;;;;;;6.60;0.95;;;2.30;99.90;;;;;;5023586;28;20030;-87
2023/03/15 02:28:27;;;;;;;3.72;0.70;;;2.40;99.90;;;;;;5037369;28;20076;-88
2023/03/15 02:30:53;;;;;;;4.30;0.80;;;2.40;99.90;;;;;;5013139;28;20559;-88
2023/03/15 02:33:25;;;;;;;5.75;1.02;;;2.30;99.90;;;;;;5038105;28;20029;-87
2023/03/15 02:35:52;;;;;;;1.67;0.60;;;2.30;99.90;;;;;;5033380;28;20025;-86
2023/03/15 02:38:18;;;;;;;2.03;0.90;;;2.30;99.90;;;;;;5017474;28;20113;-88
2023/03/15 02:40:45;;;;;;;4.90;1.10;;;2.40;99.90;;;;;;5018935;28;20029;-87
2023/03/15 02:43:20;;;;;;;2.58;1.63;;;2.40;99.90;;;;;;5033170;28;20045;-87
2023/03/15 02:45:47;;;;;;;2.90;1.70;;;2.40;99.90;;;;;;5019551;28;20058;-89
2023/03/15 02:48:13;;;;;;;5.22;1.88;;;2.40;99.90;;;;;;5045451;28;20429;-88
2023/03/15 02:50:38;;;;;;;2.72;2.28;;;2.40;99.90;;;;;;5025261;28;20078;-87
2023/03/15 02:53:05;;;;;;;3.35;2.80;;;2.50;99.90;;;;;;5021880;28;20030;-88
2023/03/15 02:55:33;;;;;;;3.97;3.38;;;2.50;99.90;;;;;;5040585;28;20394;-89
2023/03/15 02:58:00;;;;;;;2.97;2.30;;;2.50;99.90;;;;;;5047349;28;20025;-88
2023/03/15 03:00:27;;;;;;;2.70;2.00;;;2.50;99.90;;;;;;5035918;28;20033;-88
2023/03/15 03:02:53;;;;;;;3.35;2.00;;;2.50;99.90;;;;;;5024077;28;20140;-89
2023/03/15 03:05:19;;;;;;;3.42;2.50;;;2.50;99.90;;;;;;5035495;28;20112;-88
2023/03/15 03:07:45;;;;;;;5.90;3.33;;;2.40;99.90;;;;;;5018985;28;20517;-88
2023/03/15 03:10:14;;;;;;;4.03;3.13;;;2.40;99.90;;;;;;5014754;28;20285;-87
2023/03/15 03:12:52;;;;;;;5.43;2.55;;;2.40;99.90;;;;;;5025858;28;20033;-89
2023/03/15 03:15:18;;;;;;;5.90;4.53;;;2.40;99.90;;;;;;5027552;28;20446;-88
2023/03/15 03:17:44;;;;;;;6.13;4.25;;;2.40;99.90;;;;;;5011884;28;20025;-88
2023/03/15 03:20:12;;;;;;;7.63;4.15;;;2.40;99.90;;;;;;5038921;28;20013;-88
2023/03/15 03:22:43;;;;;;;4.75;3.28;;;2.30;99.90;;;;;;5025387;28;20402;-88
2023/03/15 03:25:10;;;;;;;8.93;4.30;;;2.20;99.90;;;;;;5020509;28;20021;-89
2023/03/15 03:27:37;;;;;;;5.57;4.20;;;2.20;99.90;;;;;;5030585;28;20497;-87
2023/03/15 03:30:08;;;;;;;4.78;3.47;;;2.20;99.90;;;;;;5034108;28;20067;-89
2023/03/15 03:32:36;;;;;;;3.53;3.20;;;2.20;99.90;;;;;;5036626;28;20036;-87
2023/03/15 03:35:01;;;;;;;6.28;3.58;;;2.10;99.90;;;;;;5025644;28;20037;-89
2023/03/15 03:37:28;;;;;;;4.50;3.25;;;2.10;99.90;;;;;;5020104;28;20039;-88
2023/03/15 03:39:59;;;;;;;3.35;2.40;;;2.10;99.90;;;;;;5010370;28;20022;-88
2023/03/15 03:42:25;;;;;;;3.05;2.28;;;2.10;99.90;;;;;;5022178;28;20100;-88
2023/03/15 03:44:52;;;;;;;3.72;2.17;;;2.00;99.90;;;;;;5021069;28;20021;-90
2023/03/15 03:47:19;;;;;;;5.00;2.03;;;1.90;99.90;;;;;;5022044;28;20024;-89
2023/03/15 03:49:44;;;;;;;2.50;1.38;;;1.80;99.90;;;;;;5038678;28;20527;-87
2023/03/15 03:52:10;;;;;;;4.25;2.00;;;1.80;99.90;;;;;;5019859;28;20013;-88
2023/03/15 03:54:36;;;;;;;3.60;1.70;;;1.80;99.90;;;;;;5042674;28;20033;-89
2023/03/15 03:57:02;;;;;;;3.17;1.27;;;1.70;99.90;;;;;;5041138;28;20075;-88
2023/03/15 03:59:31;;;;;;;1.90;0.93;;;1.60;99.90;;;;;;5029789;28;20075;-87
2023/03/15 04:02:02;;;;;;;2.03;0.93;;;1.60;99.90;;;;;;5040325;28;20052;-88
2023/03/15 04:04:30;;;;;;;2.20;0.95;;;1.50;99.90;;;;;;5019060;28;20041;-88
2023/03/15 04:06:56;;;;;;;1.73;0.95;;;1.50;99.90;;;;;;5026323;28;20028;-87
2023/03/15 04:09:27;;;;;;;3.97;1.48;;;1.40;99.90;;;;;;5020244;28;20029;-87
2023/03/15 04:11:53;;;;;;;3.05;1.42;;;1.40;99.90;;;;;;5025566;28;20032;-89
2023/03/15 04:14:19;;;;;;;3.53;1.95;;;1.30;99.90;;;;;;5017361;28;20028;-87
2023/03/15 04:16:47;;;;;;;2.63;1.13;;;1.30;99.90;;;;;;5009890;28;20100;-87
2023/03/15 04:19:15;;;;;;;4.50;1.48;;;1.20;99.90;;;;;;5019942;28;20017;-88
2023/03/15 04:21:45;;;;;;;1.73;0.90;;;1.20;99.90;;;;;;5011816;28;20466;-88
2023/03/15 04:24:35;;;;;;;4.10;1.48;;;1.20;99.90;;;;;;4981240;28;20483;-90
2023/03/15 04:27:07;;;;;;;2.78;1.00;;;1.10;99.90;;;;;;4988209;28;20042;-88
2023/03/15 04:29:51;;;;;;;2.72;0.90;;;1.10;99.90;;;;;;4982878;28;20081;-88
2023/03/15 04:32:20;;;;;;;2.85;1.27;;;1.10;99.90;;;;;;4971910;28;20026;-87
2023/03/15 04:35:04;;;;;;;1.98;0.73;;;1.10;99.90;;;;;;4971685;28;20123;-88
2023/03/15 04:37:50;;;;;;;3.17;1.60;;;1.10;99.90;;;;;;4971347;28;20026;-88
2023/03/15 04:40:48;;;;;;;3.25;1.55;;;1.10;99.90;;;;;;4964143;28;20062;-87
2023/03/15 04:43:46;;;;;;;3.17;2.00;;;1.10;99.90;;;;;;4911169;29;20581;-86
2023/03/15 04:46:32;;;;;;;3.75;1.40;;;1.00;99.90;;;;;;4892866;29;20437;-87
2023/03/15 04:49:15;;;;;;;4.10;1.38;;;1.00;99.90;;;;;;4911206;29;20047;-89
2023/03/15 04:51:54;;;;;;;2.20;0.90;;;1.00;99.90;;;;;;4894910;29;20028;-87
2023/03/15 04:54:28;;;;;;;2.58;0.80;;;1.00;99.90;;;;;;4896809;29;20139;-88
2023/03/15 04:57:08;;;;;;;2.00;0.80;;;1.00;99.90;;;;;;4894501;29;20037;-88
2023/03/15 04:59:46;;;;;;;3.17;1.17;;;1.00;99.90;;;;;;4896685;29;20036;-89
2023/03/15 05:02:40;;;;;;;2.50;1.05;;;1.00;99.90;;;;;;4922472;29;20043;-88
2023/03/15 05:05:16;;;;;;;2.25;0.80;;;1.00;99.90;;;;;;4912985;29;20032;-87
2023/03/15 05:07:52;;;;;;;2.60;1.27;;;1.10;99.90;;;;;;4935760;29;20542;-87
2023/03/15 05:10:32;;;;;;;3.25;1.08;;;1.10;99.90;;;;;;4944946;29;20031;-86
2023/03/15 05:13:20;;;;;;;2.88;0.90;;;1.20;99.90;;;;;;4914598;29;20062;-89
2023/03/15 05:16:22;;;;;;;5.70;1.98;;;1.20;99.90;;;;;;4846991;29;20491;-87
2023/03/15 05:18:56;;;;;;;6.82;2.60;;;1.20;99.90;;;;;;4840105;29;20490;-89
2023/03/15 05:21:57;;;;;;;4.68;2.70;;;1.20;99.90;;;;;;4902733;29;20413;-86
2023/03/15 05:24:55;;;;;;;5.55;2.75;;;1.20;99.90;;;;;;4899590;29;20037;-87
2023/03/15 05:27:40;;;;;;;4.95;2.90;;;1.20;99.90;;;;;;4875960;29;20489;-86
2023/03/15 05:30:15;;;;;;;6.65;3.75;;;1.20;99.90;;;;;;4907660;29;20056;-87
2023/03/15 05:33:03;;;;;;;6.10;3.75;;;1.30;99.90;;;;;;4892088;29;20537;-86
2023/03/15 05:36:00;;;;;;;6.10;4.03;;;1.30;99.90;;;;;;4896034;29;20155;-85
2023/03/15 05:38:54;;;;;;;6.30;4.35;;;1.30;99.90;;;;;;4865733;29;20032;-87
2023/03/15 05:41:46;;;;;;;7.13;3.20;;;1.40;99.90;;;;;;4893495;29;20131;-85
2023/03/15 05:44:47;;;;;;;4.82;3.10;;;1.40;99.90;;;;;;4895072;29;20067;-86
2023/03/15 05:47:32;;;;;;;6.63;3.50;;;1.40;99.90;;;;;;4895244;29;20135;-88
2023/03/15 05:50:31;;;;;;;4.25;2.63;;;1.40;99.90;;;;;;4894639;29;20432;-87
2023/03/15 05:53:22;;;;;;;6.13;2.42;;;1.40;99.90;;;;;;4927060;29;20044;-89
2023/03/15 05:56:07;;;;;;;4.22;1.85;;;1.40;99.90;;;;;;4929292;29;20042;-87
2023/03/15 05:58:53;;;;;;;3.47;1.70;;;1.30;99.90;;;;;;4948150;28;20039;-87
2023/03/15 06:01:38;;;;;;;5.35;1.67;;;1.30;99.90;;;;;;4964861;28;20050;-88
2023/03/15 06:04:19;;;;;;;2.53;1.08;;;1.30;99.90;;;;;;4951379;28;20031;-87
2023/03/15 06:06:45;;;;;;;3.50;1.50;;;1.30;99.90;;;;;;4949795;28;20048;-90
2023/03/15 06:09:11;;;;;;;3.42;1.83;;;1.30;99.90;;;;;;4952211;28;20026;-87
2023/03/15 06:11:37;;;;;;;5.97;2.70;;;1.30;99.90;;;;;;4951725;28;21943;-88
2023/03/15 06:14:03;;;;;;;5.45;3.15;;;1.30;99.90;;;;;;4935851;28;20114;-87
2023/03/15 06:16:49;;;;;;;3.63;2.35;;;1.30;99.90;;;;;;4952959;28;20038;-88
2023/03/15 06:19:16;;;;;;;4.03;2.13;;;1.30;99.90;;;;;;4952055;28;20130;-87
2023/03/15 06:21:42;;;;;;;4.78;2.30;;;1.30;99.90;;;;;;4948985;28;20665;-88
2023/03/15 06:24:14;;;;;;;4.93;3.30;;;1.30;99.90;;;;;;4951681;28;20227;-87
2023/03/15 06:26:40;;;;;;;6.80;4.00;;;1.40;99.90;;;;;;5013320;28;20044;-90
2023/03/15 06:29:06;;;;;;;6.15;3.28;;;1.40;99.90;;;;;;5020458;28;20018;-88
2023/03/15 06:31:32;;;;;;;5.90;3.65;;;1.40;99.90;;;;;;5013457;28;20025;-87
2023/03/15 06:34:07;;;;;;;5.18;2.28;;;1.40;99.90;;;;;;5033316;28;20032;-90
2023/03/15 06:36:35;;;;;;;8.77;4.65;;;1.50;99.90;;;;;;5030499;28;20034;-89
2023/03/15 06:39:01;;;;;;;9.43;4.70;;;1.50;99.90;;;;;;5020749;28;20132;-88
2023/03/15 06:41:27;;;;;;;9.68;6.72;;;1.60;99.90;;;;;;5024990;28;20489;-87
2023/03/15 06:44:01;;;;;;;9.55;6.80;;;1.50;99.90;;;;;;5031925;28;20100;-88
2023/03/15 06:46:26;;;;;;;8.68;5.70;;;1.50;99.90;;;;;;5024300;28;20223;-88
2023/03/15 06:48:52;;;;;;;10.02;5.65;;;1.50;99.90;;;;;;5038435;28;20489;-88
2023/03/15 06:51:20;;;;;;;7.30;4.57;;;1.50;99.90;;;;;;5029850;28;20021;-91
2023/03/15 06:53:46;;;;;;;6.10;3.55;;;1.60;99.90;;;;;;5047186;28;20087;-89
2023/03/15 06:56:12;;;;;;;7.75;4.13;;;1.60;99.90;;;;;;5015699;28;20025;-89
2023/03/15 06:58:37;;;;;;;6.13;3.53;;;1.60;99.90;;;;;;5024563;28;20433;-90
2023/03/15 07:01:03;;;;;;;8.40;4.13;;;1.70;99.90;;;;;;5023559;28;20047;-88
2023/03/15 07:03:29;;;;;;;5.45;2.28;;;1.80;99.90;;;;;;5022474;28;20044;-89
2023/03/15 07:05:55;;;;;;;4.97;2.60;;;1.80;99.90;;;;;;5013690;28;20057;-89
2023/03/15 07:08:22;;;;;;;3.42;1.67;;;1.80;99.90;;;;;;5023408;28;20408;-87
2023/03/15 07:10:49;;;;;;;3.83;2.05;;;1.80;99.90;;;;;;5033653;28;20052;-88
2023/03/15 07:13:15;;;;;;;7.40;3.17;;;1.80;99.90;;;;;;5023325;28;20112;-89
2023/03/15 07:15:41;;;;;;;7.53;3.53;;;1.90;99.90;;;;;;5018700;28;20025;-88
2023/03/15 07:18:07;;;;;;;6.53;3.38;;;1.90;99.90;;;;;;5029898;28;20519;-88
2023/03/15 07:20:33;;;;;;;7.75;4.03;;;2.00;99.90;;;;;;5029998;28;20079;-89
2023/03/15 07:22:58;;;;;;;5.60;2.88;;;2.00;99.90;;;;;;5035860;28;20095;-88
2023/03/15 07:25:24;;;;;;;6.10;2.60;;;2.10;99.90;;;;;;5024924;28;20041;-89
2023/03/15 07:27:51;;;;;;;7.90;1.60;;;2.20;99.90;;;;;;5019270;28;20057;-89
2023/03/15 07:30:18;;;;;;;6.13;1.73;;;2.30;99.90;;;;;;5052417;28;20022;-88
2023/03/15 07:32:44;;;;;;;3.63;1.40;;;2.30;99.90;;;;;;5013369;28;20037;-88
2023/03/15 07:35:09;;;;;;;3.55;1.50;;;2.40;99.90;;;;;;5047571;28;20086;-88
2023/03/15 07:37:35;;;;;;;4.32;1.42;;;2.50;99.90;;;;;;5020168;28;20045;-90
2023/03/15 07:40:08;;;;;;;5.07;1.33;;;2.50;99.90;;;;;;5023116;28;20359;-90
2023/03/15 07:42:38;;;;;;;6.72;1.92;;;2.60;99.90;;;;;;5023008;28;20319;-88
2023/03/15 07:45:06;;;;;;;4.15;1.40;;;2.60;99.90;;;;;;5033692;28;20470;-87
2023/03/15 07:47:32;;;;;;;3.55;1.55;;;2.80;99.90;;;;;;5019360;28;20200;-88
2023/03/15 07:49:58;;;;;;;5.13;1.83;;;2.90;99.90;;;;;;5017657;28;20116;-89
2023/03/15 07:52:24;;;;;;;6.38;3.17;;;3.00;99.90;;;;;;5012325;28;20033;-89
2023/03/15 07:54:50;;;;;;;5.32;1.98;;;2.90;99.90;;;;;;5032816;28;20037;-89
2023/03/15 07:57:16;;;;;;;5.40;2.38;;;3.00;99.90;;;;;;5018713;28;20028;-90
2023/03/15 07:59:41;;;;;;;5.35;2.40;;;3.00;99.90;;;;;;5018695;28;20136;-90
2023/03/15 08:02:11;;;;;;;5.82;2.53;;;3.10;99.90;;;;;;5023985;28;20034;-89
2023/03/15 08:04:36;;;;;;;6.37;2.30;;;3.20;99.90;;;;;;5023949;28;20030;-88
2023/03/15 08:07:02;;;;;;;5.68;2.97;;;3.30;99.90;;;;;;5038119;28;20320;-88
2023/03/15 08:09:28;;;;;;;3.90;2.03;;;3.50;99.90;;;;;;5034485;28;20044;-88
2023/03/15 08:11:53;;;;;;;5.40;1.67;;;3.70;99.90;;;;;;5037955;28;20033;-89
2023/03/15 08:14:19;;;;;;;4.05;2.20;;;3.80;99.90;;;;;;5031597;28;20053;-87
2023/03/15 08:16:45;;;;;;;5.65;2.25;;;3.80;99.90;;;;;;5032930;28;20025;-90
2023/03/15 08:19:10;;;;;;;4.68;2.22;;;3.70;99.90;;;;;;5023965;28;20398;-89
2023/03/15 08:21:36;;;;;;;3.67;1.70;;;3.90;99.90;;;;;;5019086;28;20040;-88
2023/03/15 08:24:02;;;;;;;3.92;1.55;;;3.90;99.90;;;;;;5052634;28;20172;-87
2023/03/15 08:26:28;;;;;;;5.47;1.85;;;4.00;99.90;;;;;;5035389;28;20049;-90
2023/03/15 08:28:53;;;;;;;7.57;2.10;;;4.10;99.90;;;;;;5020167;28;20036;-88
2023/03/15 08:31:20;;;;;;;4.60;2.22;;;4.30;99.90;;;;;;5040302;28;20017;-87
2023/03/15 08:33:47;;;;;;;7.80;2.22;;;4.40;99.90;;;;;;5021182;28;20132;-87
2023/03/15 08:36:12;;;;;;;4.93;1.50;;;4.40;99.90;;;;;;5019553;28;20034;-87
2023/03/15 08:38:38;;;;;;;6.35;1.45;;;4.40;99.90;;;;;;5027711;28;20585;-89
2023/03/15 08:41:04;;;;;;;5.28;1.52;;;4.50;99.90;;;;;;5035361;28;20032;-89
2023/03/15 08:43:29;;;;;;;6.80;1.45;;;4.60;99.90;;;;;;5036583;28;20131;-87
2023/03/15 08:45:55;;;;;;;4.45;0.93;;;4.80;99.90;;;;;;5036994;28;20059;-89
2023/03/15 08:48:21;;;;;;;5.65;1.23;;;4.90;99.90;;;;;;5026932;28;20040;-90
2023/03/15 08:50:46;;;;;;;4.57;0.85;;;4.90;99.90;;;;;;5016358;28;20032;-88
2023/03/15 08:53:12;;;;;;;4.72;0.93;;;4.90;99.90;;;;;;5034091;28;20033;-88
2023/03/15 08:55:38;;;;;;;4.82;0.88;;;5.00;99.90;;;;;;5035583;28;20048;-89
2023/03/15 08:58:04;;;;;;;3.47;0.73;;;5.10;99.90;;;;;;5035311;28;20032;-90
2023/03/15 09:00:30;;;;;;;3.83;0.77;;;5.20;99.90;;;;;;5021489;28;20029;-88
2023/03/15 09:02:56;;;;;;;5.03;1.05;;;5.40;99.90;;;;;;5029989;28;20111;-90
2023/03/15 09:05:23;;;;;;;6.05;0.82;;;5.50;99.90;;;;;;5020822;28;20489;-89
2023/03/15 09:07:51;;;;;;;8.50;1.00;;;5.70;99.90;;;;;;5011081;28;20026;-89
2023/03/15 09:10:18;;;;;;;7.38;0.88;;;5.80;99.90;;;;;;5016961;28;20033;-90
2023/03/15 09:12:47;;;;;;;3.38;0.70;;;5.90;99.90;;;;;;5028746;28;20022;-87
2023/03/15 09:15:13;;;;;;;4.72;0.90;;;5.90;99.90;;;;;;5030183;28;20037;-90
2023/03/15 09:17:41;;;;;;;3.55;0.55;;;5.90;99.90;;;;;;5014347;28;20125;-89
2023/03/15 09:20:13;;;;;;;3.45;0.82;;;6.00;99.90;;;;;;5045843;28;20485;-91
2023/03/15 09:22:43;;;;;;;4.05;0.80;;;6.00;99.90;;;;;;5026088;28;20071;-90
2023/03/15 09:25:09;;;;;;;4.00;0.82;;;5.90;99.90;;;;;;5036929;28;20026;-91
2023/03/15 09:27:35;;;;;;;5.25;0.85;;;6.00;99.90;;;;;;5022060;28;20115;-91
2023/03/15 09:30:02;;;;;;;2.67;0.73;;;6.10;99.90;;;;;;5018922;28;20021;-90
2023/03/15 09:32:28;;;;;;;6.18;0.70;;;6.10;99.90;;;;;;5038288;28;20048;-91
2023/03/15 09:34:54;;;;;;;3.45;0.70;;;6.20;99.90;;;;;;5013416;28;20044;-91
2023/03/15 09:37:20;;;;;;;4.45;0.60;;;6.30;99.90;;;;;;5024191;28;20060;-91
2023/03/15 09:39:46;;;;;;;6.90;0.60;;;6.40;99.90;;;;;;5030476;28;20033;-89
2023/03/15 09:42:40;;;;;;;5.18;0.70;;;6.30;99.90;;;;;;5018569;28;20049;-91
2023/03/15 09:45:18;;;;;;;5.20;0.40;;;6.40;99.90;;;;;;5013435;28;20393;-90
2023/03/15 09:47:52;;;;;;;4.43;0.50;;;6.50;99.90;;;;;;5030940;28;20029;-90
2023/03/15 09:50:25;;;;;;;6.00;0.40;;;6.40;99.90;;;;;;5019550;28;20091;-91
2023/03/15 09:53:00;;;;;;;1.48;0.28;;;7.00;99.90;;;;;;5025511;28;20087;-91
2023/03/15 09:55:27;;;;;;;3.78;0.30;;;7.10;99.90;;;;;;5017595;28;20053;-90
2023/03/15 09:57:52;;;;;;;3.20;0.47;;;6.80;99.90;;;;;;5025090;28;20032;-90
2023/03/15 10:00:59;;;;;;;5.40;0.30;;;6.60;99.90;;;;;;5048242;28;20032;-91
2023/03/15 10:03:50;;;;;;;4.13;0.30;;;6.80;99.90;;;;;;5002727;28;20073;-89
2023/03/15 10:06:22;;;;;;;5.82;0.40;;;7.00;99.90;;;;;;4992335;28;20484;-89
2023/03/15 10:08:53;;;;;;;3.38;0.60;;;7.00;99.90;;;;;;5016923;28;20033;-89
2023/03/15 10:11:46;;;;;;;4.38;0.30;;;7.10;99.90;;;;;;5016448;28;20025;-90
2023/03/15 10:14:39;;;;;;;1.85;0.30;;;7.70;99.90;;;;;;4993164;28;20113;-88
2023/03/15 10:17:13;;;;;;;4.97;0.20;;;7.70;99.90;;;;;;5000617;28;20026;-89
2023/03/15 10:19:46;;;;;;;1.80;0.20;;;7.30;99.90;;;;;;5009678;28;20474;-89
2023/03/15 10:22:18;;;;;;;1.67;0.20;;;7.20;99.90;;;;;;5010979;28;20506;-88
2023/03/15 10:25:38;;;;;;;4.63;0.40;;;7.50;99.90;;;;;;4997531;28;20025;-91
2023/03/15 10:28:03;;;;;;;2.42;0.22;;;7.20;99.90;;;;;;4973422;28;20043;-90
2023/03/15 10:30:32;;;;;;;2.15;0.20;;;7.40;99.90;;;;;;4972501;28;20048;-88
2023/03/15 10:33:01;;;;;;;2.65;0.30;;;7.40;99.90;;;;;;4956642;28;20062;-90
2023/03/15 10:35:27;;;;;;;4.87;0.30;;;7.20;99.90;;;;;;4988960;28;20130;-90
2023/03/15 10:37:53;;;;;;;3.80;0.20;;;7.40;99.90;;;;;;4958649;28;20122;-91
2023/03/15 10:40:39;;;;;;;1.85;0.20;;;7.70;99.90;;;;;;4969736;28;20345;-89
2023/03/15 10:43:29;;;;;;;3.13;0.20;;;8.10;99.90;;;;;;4990091;28;20050;-89
2023/03/15 10:45:59;;;;;;;4.45;0.40;;;7.70;99.90;;;;;;4950287;28;20100;-89
2023/03/15 10:48:26;;;;;;;2.80;0.30;;;8.10;99.90;;;;;;4960791;28;20427;-90
2023/03/15 10:50:51;;;;;;;4.65;0.20;;;7.60;99.90;;;;;;4955238;28;20025;-91
2023/03/15 10:53:20;;;;;;;1.63;0.20;;;7.70;99.90;;;;;;4970958;28;20038;-91
2023/03/15 10:55:47;;;;;;;1.08;0.17;;;8.30;99.90;;;;;;4970724;28;20046;-91
2023/03/15 10:58:38;;;;;;;1.25;0.20;;;8.10;99.90;;;;;;4957358;28;20030;-91
2023/03/15 11:01:21;;;;;;;3.95;0.13;;;8.40;99.90;;;;;;4960992;28;20034;-90
2023/03/15 11:04:17;;;;;;;2.30;0.13;;;8.90;99.90;;;;;;5029638;28;20095;-91
2023/03/15 11:06:50;;;;;;;3.33;0.17;;;8.90;99.90;;;;;;5034643;28;20025;-91
2023/03/15 11:09:22;;;;;;;2.63;0.20;;;8.80;99.90;;;;;;5036995;28;20107;-89
2023/03/15 11:12:05;;;;;;;2.92;0.10;;;8.20;99.90;;;;;;5051845;28;20227;-90
2023/03/15 11:14:41;;;;;;;2.60;0.20;;;7.80;99.90;;;;;;5052602;28;20057;-90
2023/03/15 11:17:14;;;;;;;1.95;0.20;;;7.70;99.90;;;;;;5016904;28;20030;-90
2023/03/15 11:19:44;;;;;;;1.77;0.10;;;7.80;99.90;;;;;;5018404;28;20032;-90
2023/03/15 11:22:12;;;;;;;1.15;0.15;;;8.10;99.90;;;;;;5022606;28;20040;-90
2023/03/15 11:24:39;;;;;;;1.70;0.20;;;8.00;99.90;;;;;;5024972;28;20044;-92
2023/03/15 11:27:13;;;;;;;2.70;0.20;;;8.30;99.90;;;;;;5018195;28;20045;-91
2023/03/15 11:29:44;;;;;;;3.30;0.13;;;8.80;99.90;;;;;;5020970;28;20037;-90
2023/03/15 11:32:14;;;;;;;2.33;0.17;;;8.90;99.90;;;;;;5057214;28;20037;-91
2023/03/15 11:34:46;;;;;;;2.50;0.20;;;8.30;99.90;;;;;;5023818;28;20111;-90
2023/03/15 11:37:20;;;;;;;2.80;0.20;;;8.40;99.90;;;;;;5017263;28;20048;-91
2023/03/15 11:40:01;;;;;;;0.63;0.10;;;8.70;99.90;;;;;;5021721;28;20393;-90
2023/03/15 11:42:43;;;;;;;1.83;0.10;;;8.90;99.90;;;;;;5021749;28;20394;-91
2023/03/15 11:45:19;;;;;;;0.88;0.10;;;8.30;99.90;;;;;;5056240;28;20018;-91
2023/03/15 11:47:56;;;;;;;1.77;0.20;;;8.60;99.90;;;;;;5031510;28;20037;-90
2023/03/15 11:50:21;;;;;;;5.25;0.30;;;8.70;99.90;;;;;;5020534;28;20045;-90
2023/03/15 11:52:49;;;;;;;3.50;0.20;;;8.50;99.90;;;;;;5022250;28;20025;-91
2023/03/15 11:55:27;;;;;;;1.90;0.20;;;7.90;99.90;;;;;;5023541;28;20104;-91
2023/03/15 11:57:53;;;;;;;1.25;0.20;;;8.10;99.90;;;;;;5008916;28;20163;-91
2023/03/15 12:00:25;;;;;;;3.33;0.30;;;8.40;99.90;;;;;;5010016;28;20029;-90
2023/03/15 12:02:57;;;;;;;1.85;0.20;;;8.50;99.90;;;;;;5025347;28;20036;-90
2023/03/15 12:05:43;;;;;;;1.55;0.20;;;8.90;99.90;;;;;;5019140;28;20035;-90
2023/03/15 12:08:38;;;;;;;2.67;0.20;;;9.30;99.90;;;;;;5017134;28;20029;-91
2023/03/15 12:11:32;;;;;;;1.23;0.10;;;9.20;99.90;;;;;;5036602;28;20108;-91
2023/03/15 12:13:58;;;;;;;1.92;0.17;;;9.20;99.90;;;;;;5028077;28;20474;-91
2023/03/15 12:16:36;;;;;;;1.42;0.10;;;9.40;99.90;;;;;;5017998;28;20116;-91
2023/03/15 12:19:13;;;;;;;1.67;0.10;;;9.40;99.90;;;;;;5029345;28;20032;-91
2023/03/15 12:21:50;;;;;;;3.17;0.60;;;9.60;99.90;;;;;;5033589;28;20476;-91
2023/03/15 12:24:27;;;;;;;1.95;0.10;;;9.30;99.90;;;;;;5034577;28;20025;-91
2023/03/15 12:27:14;;;;;;;0.95;0.20;;;9.50;99.90;;;;;;5011999;28;20179;-90
2023/03/15 12:29:42;;;;;;;0.98;0.10;;;9.40;99.90;;;;;;5011186;28;20112;-91
2023/03/15 12:32:12;;;;;;;1.58;0.10;;;9.40;99.90;;;;;;5020174;28;20139;-90
2023/03/15 12:34:52;;;;;;;3.28;0.17;;;9.60;99.90;;;;;;5034923;28;20478;-91
2023/03/15 12:37:17;;;;;;;1.90;0.20;;;9.00;99.90;;;;;;5018110;28;20033;-90
2023/03/15 12:39:58;;;;;;;2.22;0.20;;;9.00;99.90;;;;;;5021193;28;20291;-91
2023/03/15 12:42:30;;;;;;;1.33;0.10;;;9.30;99.90;;;;;;5018481;28;20450;-90
2023/03/15 12:45:16;;;;;;;3.22;0.20;;;9.00;99.90;;;;;;5047222;28;20029;-90
2023/03/15 12:47:51;;;;;;;2.63;0.20;;;8.80;99.90;;;;;;5025068;28;20037;-91
2023/03/15 12:50:44;;;;;;;2.08;0.20;;;8.80;99.90;;;;;;5027878;28;20085;-90
2023/03/15 12:53:29;;;;;;;2.95;0.20;;;9.00;99.90;;;;;;5007355;28;20036;-91
2023/03/15 12:55:56;;;;;;;0.85;0.10;;;9.20;99.90;;;;;;5035715;28;20065;-93
2023/03/15 12:58:30;;;;;;;3.70;0.13;;;9.70;99.90;;;;;;5036368;28;20045;-90
2023/03/15 13:00:58;;;;;;;1.98;0.20;;;9.60;99.90;;;;;;5025064;28;20041;-89
2023/03/15 13:03:25;;;;;;;3.22;0.30;;;9.40;99.90;;;;;;5020064;28;20103;-90
2023/03/15 13:06:29;;;;;;;1.33;0.20;;;9.10;99.90;;;;;;5045626;28;20025;-90
2023/03/15 13:09:02;;;;;;;1.15;0.15;;;9.20;99.90;;;;;;5019964;28;20037;-91
2023/03/15 13:11:36;;;;;;;1.88;0.20;;;9.30;99.90;;;;;;5011971;28;20131;-91
2023/03/15 13:14:31;;;;;;;0.85;0.10;;;9.80;99.90;;;;;;5015612;28;20026;-92
2023/03/15 13:17:27;;;;;;;2.00;0.10;;;9.90;99.90;;;;;;5011957;28;20048;-92
2023/03/15 13:20:17;;;;;;;1.63;0.65;;;10.00;99.90;;;;;;5020475;28;20029;-91
2023/03/15 13:22:58;;;;;;;1.37;0.20;;;9.80;99.90;;;;;;5022167;28;20037;-91
2023/03/15 13:25:24;;;;;;;0.98;0.08;;;9.70;99.90;;;;;;5010342;28;20312;-91